Darstellungsparameter: Aktuell verwendete Einstellungen:
Skalierung der Graphiken ... ?
xyx+y,   Skalierungsfaktor:      Skalierung: Modus: x, Faktor: 1
Darstellungszeitraum ... ?
Vom - - bis: - -   Zeitraum: 29.09.2021 - 28.10.2021
Min/Max/Avg-Anzeige ... ?
Zeige MMA aktuell
Zeige MMA Monat
Zeige MMA alles
Zeige --A aktuell
Zeige --A Monat
Zeige --A alles
Keine MMA-Anzeige
MMA:
Average (ber die Originaldaten)
MMA-Basis: 29.09.2021 - 28.10.2021
Quicknavigation für Darstellung... ?
Tage:      1T, 2T, 3T, 5T -1T -2T -3T -5T +1T +2T +3T +5T
Wochen: 1W, 2W, 3W -1W -2W -3W +1W +2W +3W
Monate: 1M, 3M, 6M -1M -3M -6M +1M +3M +6M
Jahre:    1J, 3J, 5J, 10J -1J -3J -5J -10J +1J +3J +5J +10J
Nutze für die Darstellung ... ?
Originaldaten oder ...
Mittelwerte Minima Maxima auf...
Stundenbasis Tagesbasis Wochenbasis
Monatsbasis Jahresbasis      Datenbasis: Mittelwerte auf Stundenbasis
Darstellen als:
Statistik (Auto) Statistik J:M      Darstellung:
Zur Graphik,    zurück zur Übersicht aller Sensoren.
 
Tabellarische Datenbersicht: ?
 
Sensor: Nr:Datum:Temp:Abs-Feuchte:Windchill:Wind:
Aussen-T/F 1 29-09-2021 00:00:00 10.34167 C 9.07 g/m*3 10.34 C 0 km/h
2 29-09-2021 01:00:00 10.23333 C 9.06 g/m*3 10.23 C 0 km/h
3 29-09-2021 02:00:00 9.93333 C 8.89 g/m*3 9.93 C 0 km/h
4 29-09-2021 03:00:00 9.74167 C 8.8 g/m*3 9.74 C 0 km/h
5 29-09-2021 04:00:00 9.35 C 8.59 g/m*3 9.35 C 0 km/h
6 29-09-2021 05:00:00 8.98333 C 8.44 g/m*3 8.98 C 0 km/h
7 29-09-2021 06:00:00 8.63333 C 8.27 g/m*3 8.63 C 0 km/h
8 29-09-2021 07:00:00 8.34167 C 8.11 g/m*3 8.34 C 0.53333 km/h
9 29-09-2021 08:00:00 9.075 C 8.57 g/m*3 9.07 C 1.46667 km/h
10 29-09-2021 09:00:00 10.35 C 9.32 g/m*3 10.35 C 2.13333 km/h
11 29-09-2021 10:00:00 11.825 C 10.23 g/m*3 11.83 C 2.41667 km/h
12 29-09-2021 11:00:00 14.24167 C 11.02 g/m*3 14.24 C 12.9 km/h
13 29-09-2021 12:00:00 15.05 C 10.96 g/m*3 15.05 C 13.425 km/h
14 29-09-2021 13:00:00 13.05 C 10.62 g/m*3 13.05 C 9.68333 km/h
15 29-09-2021 14:00:00 14.09167 C 10.63 g/m*3 14.09 C 12.35833 km/h
16 29-09-2021 15:00:00 14.58333 C 9.79 g/m*3 14.58 C 14.9 km/h
17 29-09-2021 16:00:00 14.95 C 9.09 g/m*3 14.95 C 15.96667 km/h
18 29-09-2021 17:00:00 15.45 C 8.94 g/m*3 15.45 C 11.69167 km/h
19 29-09-2021 18:00:00 15.85 C 8.43 g/m*3 15.85 C 10.075 km/h
20 29-09-2021 19:00:00 12.875 C 8.05 g/m*3 12.88 C 7.5 km/h
21 29-09-2021 20:00:00 10.48333 C 7.86 g/m*3 9.83 C 6.825 km/h
22 29-09-2021 21:00:00 9.65833 C 7.88 g/m*3 9.66 C 4.4 km/h
23 29-09-2021 22:00:00 9.28333 C 7.92 g/m*3 9.28 C 4.14167 km/h
24 29-09-2021 23:00:00 8.79167 C 7.76 g/m*3 8.79 C 2.66667 km/h
25 30-09-2021 00:00:00 9.28333 C 7.78 g/m*3 8.83 C 5.35833 km/h
Sensor: Nr:Datum:Temp:Abs-Feuchte:Windchill:Wind:
Aussen-T/F 26 30-09-2021 01:00:00 8.89167 C 7.71 g/m*3 8.47 C 5.1 km/h
27 30-09-2021 02:00:00 9.03333 C 7.77 g/m*3 8.14 C 6.85 km/h
28 30-09-2021 03:00:00 8.89167 C 7.7 g/m*3 7.69 C 8.05833 km/h
29 30-09-2021 04:00:00 8.65 C 7.64 g/m*3 7.47 C 7.79167 km/h
30 30-09-2021 05:00:00 8.3 C 7.53 g/m*3 7.22 C 7.125 km/h
31 30-09-2021 06:00:00 7.85 C 7.47 g/m*3 7.85 C 4.80833 km/h
32 30-09-2021 07:00:00 7.93333 C 7.51 g/m*3 6.27 C 9.425 km/h
33 30-09-2021 08:00:00 7.73333 C 7.49 g/m*3 6.3 C 8.20833 km/h
34 30-09-2021 09:00:00 8.29167 C 7.72 g/m*3 6.57 C 10.1 km/h
35 30-09-2021 10:00:00 9.16667 C 8.05 g/m*3 8.07 C 7.79167 km/h
36 30-09-2021 11:00:00 10.49167 C 8.5 g/m*3 9.93 C 6.43333 km/h
37 30-09-2021 12:00:00 12.2 C 8.78 g/m*3 12.2 C 9.68333 km/h
38 30-09-2021 13:00:00 13.36667 C 8.77 g/m*3 13.37 C 12.23333 km/h
39 30-09-2021 14:00:00 14.70833 C 8.71 g/m*3 14.71 C 10.60833 km/h
40 30-09-2021 15:00:00 14.86667 C 8.53 g/m*3 14.87 C 9.01667 km/h
41 30-09-2021 16:00:00 14.95833 C 8.44 g/m*3 14.96 C 6.05833 km/h
42 30-09-2021 17:00:00 14.45 C 9.81 g/m*3 14.45 C 0.66667 km/h
43 30-09-2021 18:00:00 13.25833 C 9.62 g/m*3 13.26 C 0.26667 km/h
44 30-09-2021 19:00:00 11.84167 C 9.11 g/m*3 11.84 C 2 km/h
45 30-09-2021 20:00:00 11.175 C 8.95 g/m*3 11.18 C 1.73333 km/h
46 30-09-2021 21:00:00 10.51667 C 8.66 g/m*3 10.52 C 1.33333 km/h
47 30-09-2021 22:00:00 9.91667 C 8.48 g/m*3 9.92 C 1.86667 km/h
48 30-09-2021 23:00:00 9.85 C 8.49 g/m*3 9.85 C 0 km/h
49 01-10-2021 00:00:00 9.15833 C 8.1 g/m*3 9.16 C 1.33333 km/h
50 01-10-2021 01:00:00 8.33333 C 7.69 g/m*3 8.33 C 0.66667 km/h
Sensor: Nr:Datum:Temp:Abs-Feuchte:Windchill:Wind:
Aussen-T/F 51 01-10-2021 02:00:00 7.64167 C 7.45 g/m*3 7.64 C 0.4 km/h
52 01-10-2021 03:00:00 7.05 C 7.23 g/m*3 7.05 C 0.13333 km/h
53 01-10-2021 04:00:00 7 C 7.28 g/m*3 7 C 0 km/h
54 01-10-2021 05:00:00 6.86667 C 7.22 g/m*3 6.87 C 0 km/h
55 01-10-2021 06:00:00 6.38333 C 7.04 g/m*3 6.38 C 0.13333 km/h
56 01-10-2021 07:00:00 5.875 C 6.84 g/m*3 5.88 C 0 km/h
57 01-10-2021 08:00:00 5.83333 C 6.82 g/m*3 5.83 C 0 km/h
58 01-10-2021 09:00:00 6.475 C 7.19 g/m*3 6.48 C 0.13333 km/h
59 01-10-2021 10:00:00 8.5 C 8.26 g/m*3 8.5 C 0.13333 km/h
60 01-10-2021 11:00:00 10.40833 C 9.25 g/m*3 10.41 C 1.73333 km/h
61 01-10-2021 12:00:00 12.95833 C 9.91 g/m*3 12.96 C 4.55833 km/h
62 01-10-2021 13:00:00 15.55833 C 9.54 g/m*3 15.56 C 7.9 km/h
63 01-10-2021 14:00:00 17.55 C 9.28 g/m*3 17.55 C 7.24167 km/h
64 01-10-2021 15:00:00 18.19167 C 9.53 g/m*3 18.19 C 6.3 km/h
65 01-10-2021 16:00:00 18 C 10.97 g/m*3 18 C 1.46667 km/h
66 01-10-2021 17:00:00 16.15833 C 10.6 g/m*3 16.16 C 5.34167 km/h
67 01-10-2021 18:00:00 14.25 C 9.84 g/m*3 14.25 C 6.40833 km/h
68 01-10-2021 19:00:00 13.00833 C 9.41 g/m*3 13.01 C 4.54167 km/h
69 01-10-2021 20:00:00 12.51667 C 9.35 g/m*3 12.52 C 2.93333 km/h
70 01-10-2021 21:00:00 12.34167 C 9.4 g/m*3 12.34 C 1.86667 km/h
71 01-10-2021 22:00:00 12.26667 C 9.46 g/m*3 12.27 C 0.26667 km/h
72 01-10-2021 23:00:00 12.375 C 9.83 g/m*3 12.38 C 1.46667 km/h
73 02-10-2021 00:00:00 12.20833 C 9.82 g/m*3 12.21 C 1.875 km/h
74 02-10-2021 01:00:00 13.4 C 9.91 g/m*3 13.4 C 6.30833 km/h
75 02-10-2021 02:00:00 13.575 C 9.99 g/m*3 13.58 C 2.53333 km/h
Sensor: Nr:Datum:Temp:Abs-Feuchte:Windchill:Wind:
Aussen-T/F 76 02-10-2021 03:00:00 13.225 C 10.17 g/m*3 13.23 C 2.80833 km/h
77 02-10-2021 04:00:00 12.80833 C 10.28 g/m*3 12.81 C 2.675 km/h
78 02-10-2021 05:00:00 12.8 C 10.39 g/m*3 12.8 C 0.66667 km/h
79 02-10-2021 06:00:00 12.86667 C 10.46 g/m*3 12.87 C 0.53333 km/h
80 02-10-2021 07:00:00 12.8 C 10.48 g/m*3 12.8 C 0.53333 km/h
81 02-10-2021 08:00:00 12.83333 C 10.58 g/m*3 12.83 C 0.26667 km/h
82 02-10-2021 09:00:00 13.35833 C 10.92 g/m*3 13.36 C 0.4 km/h
83 02-10-2021 10:00:00 14.41667 C 11.32 g/m*3 14.42 C 0.26667 km/h
84 02-10-2021 11:00:00 15.33333 C 11.52 g/m*3 15.33 C 1.6 km/h
85 02-10-2021 12:00:00 16.05 C 11.64 g/m*3 16.05 C 3.34167 km/h
86 02-10-2021 13:00:00 16.79167 C 11.79 g/m*3 16.79 C 7.11667 km/h
87 02-10-2021 14:00:00 17.46667 C 11.79 g/m*3 17.47 C 6.45 km/h
88 02-10-2021 15:00:00 18.48333 C 12.32 g/m*3 18.48 C 2.8 km/h
89 02-10-2021 16:00:00 18.16667 C 12.56 g/m*3 18.17 C 3.75833 km/h
90 02-10-2021 17:00:00 17.83333 C 12.71 g/m*3 17.83 C 2.26667 km/h
91 02-10-2021 18:00:00 16.51667 C 12.1 g/m*3 16.52 C 2.8 km/h
92 02-10-2021 19:00:00 15.18333 C 11.54 g/m*3 15.18 C 1.46667 km/h
93 02-10-2021 20:00:00 14.85 C 11.29 g/m*3 14.85 C 1.73333 km/h
94 02-10-2021 21:00:00 15.45 C 11.42 g/m*3 15.45 C 3.6 km/h
95 02-10-2021 22:00:00 16.26667 C 11.87 g/m*3 16.27 C 4.95833 km/h
96 02-10-2021 23:00:00 17.66667 C 12.12 g/m*3 17.67 C 5.76667 km/h
97 03-10-2021 00:00:00 18.075 C 12.05 g/m*3 18.08 C 7.10833 km/h
98 03-10-2021 01:00:00 18.3 C 11.96 g/m*3 18.3 C 4.80833 km/h
99 03-10-2021 02:00:00 18.85 C 11.66 g/m*3 18.85 C 9.95 km/h
100 03-10-2021 03:00:00 18.98333 C 11.84 g/m*3 18.98 C 6.71667 km/h
Sensor: Nr:Datum:Temp:Abs-Feuchte:Windchill:Wind:
Aussen-T/F 101 03-10-2021 04:00:00 18.825 C 12.23 g/m*3 18.83 C 3.74167 km/h
102 03-10-2021 05:00:00 17.85 C 12.23 g/m*3 17.85 C 3.35 km/h
103 03-10-2021 06:00:00 18.50833 C 12.08 g/m*3 18.51 C 6.70833 km/h
104 03-10-2021 07:00:00 19.35833 C 12.03 g/m*3 19.36 C 6.15 km/h
105 03-10-2021 08:00:00 18.86667 C 11.99 g/m*3 18.87 C 4.55 km/h
106 03-10-2021 09:00:00 19.33333 C 11.8 g/m*3 19.33 C 6.44167 km/h
107 03-10-2021 10:00:00 20.125 C 12.07 g/m*3 20.13 C 7.78333 km/h
108 03-10-2021 11:00:00 19.48333 C 12.66 g/m*3 19.48 C 6.43333 km/h
109 03-10-2021 12:00:00 19.76667 C 12.36 g/m*3 19.77 C 7.65 km/h
110 03-10-2021 13:00:00 21.50833 C 12.23 g/m*3 21.51 C 7.93333 km/h
111 03-10-2021 14:00:00 22.86667 C 12.19 g/m*3 22.87 C 12.75833 km/h
112 03-10-2021 15:00:00 21.225 C 12.71 g/m*3 21.23 C 12.48333 km/h
113 03-10-2021 16:00:00 19.36667 C 13.21 g/m*3 19.37 C 9.11667 km/h
114 03-10-2021 17:00:00 19.15833 C 12.68 g/m*3 19.16 C 10.225 km/h
115 03-10-2021 18:00:00 18.63333 C 12.56 g/m*3 18.63 C 8.05833 km/h
116 03-10-2021 19:00:00 17.81667 C 12.42 g/m*3 17.82 C 4.28333 km/h
117 03-10-2021 20:00:00 16.13333 C 11.8 g/m*3 16.13 C 8.725 km/h
118 03-10-2021 21:00:00 14.13333 C 10.73 g/m*3 14.13 C 2.8 km/h
119 03-10-2021 22:00:00 13.51667 C 10.3 g/m*3 13.52 C 5.1 km/h
120 03-10-2021 23:00:00 13.50833 C 9.91 g/m*3 13.51 C 6.425 km/h
121 04-10-2021 00:00:00 13.30833 C 9.93 g/m*3 13.31 C 5.625 km/h
122 04-10-2021 01:00:00 13.125 C 9.9 g/m*3 13.13 C 3.475 km/h
123 04-10-2021 02:00:00 12.9 C 9.79 g/m*3 12.9 C 6.56667 km/h
124 04-10-2021 03:00:00 12.825 C 9.72 g/m*3 12.83 C 1.33333 km/h
125 04-10-2021 04:00:00 12.325 C 9.71 g/m*3 12.33 C 0.26667 km/h
Sensor: Nr:Datum:Temp:Abs-Feuchte:Windchill:Wind:
Aussen-T/F 126 04-10-2021 05:00:00 12.125 C 9.78 g/m*3 12.13 C 0 km/h
127 04-10-2021 06:00:00 11.8 C 9.68 g/m*3 11.8 C 0.8 km/h
128 04-10-2021 07:00:00 11.79167 C 9.77 g/m*3 11.79 C 1.6 km/h
129 04-10-2021 08:00:00 12.05 C 9.9 g/m*3 12.05 C 0.26667 km/h
130 04-10-2021 09:00:00 12.6 C 10.29 g/m*3 12.6 C 0 km/h
131 04-10-2021 10:00:00 13.49167 C 10.4 g/m*3 13.49 C 0.53333 km/h
132 04-10-2021 11:00:00 14.83333 C 10.4 g/m*3 14.83 C 4.14167 km/h
133 04-10-2021 12:00:00 15.89167 C 10.41 g/m*3 15.89 C 5.90833 km/h
134 04-10-2021 13:00:00 16.675 C 10.28 g/m*3 16.68 C 8.05833 km/h
135 04-10-2021 14:00:00 17.03333 C 10.08 g/m*3 17.03 C 5.78333 km/h
136 04-10-2021 15:00:00 17.525 C 10.27 g/m*3 17.52 C 4.7 km/h
137 04-10-2021 16:00:00 17.13333 C 10.6 g/m*3 17.13 C 2.00833 km/h
138 04-10-2021 17:00:00 16.85 C 11.08 g/m*3 16.85 C 0 km/h
139 04-10-2021 18:00:00 17.4 C 10.94 g/m*3 17.4 C 0.26667 km/h
140 04-10-2021 19:00:00 13.04167 C 9.41 g/m*3 13.04 C 5.6 km/h
141 04-10-2021 20:00:00 11.25833 C 9 g/m*3 11.26 C 2 km/h
142 04-10-2021 21:00:00 10.43333 C 8.75 g/m*3 10.43 C 0.4 km/h
143 04-10-2021 22:00:00 10.36667 C 8.85 g/m*3 10.37 C 0 km/h
144 04-10-2021 23:00:00 10 C 8.68 g/m*3 10 C 0.13333 km/h
145 05-10-2021 00:00:00 9.65833 C 8.55 g/m*3 9.66 C 0 km/h
146 05-10-2021 01:00:00 9.40833 C 8.49 g/m*3 9.41 C 0 km/h
147 05-10-2021 02:00:00 9.58333 C 8.65 g/m*3 9.58 C 0 km/h
148 05-10-2021 03:00:00 9.34167 C 8.52 g/m*3 9.34 C 0 km/h
149 05-10-2021 04:00:00 9.475 C 8.63 g/m*3 9.48 C 0.26667 km/h
150 05-10-2021 05:00:00 9.375 C 8.58 g/m*3 9.38 C 0.26667 km/h
Sensor: Nr:Datum:Temp:Abs-Feuchte:Windchill:Wind:
Aussen-T/F 151 05-10-2021 06:00:00 9.28333 C 8.53 g/m*3 9.28 C 0 km/h
152 05-10-2021 07:00:00 9.325 C 8.6 g/m*3 9.32 C 0 km/h
153 05-10-2021 08:00:00 9.59167 C 8.79 g/m*3 9.59 C 0 km/h
154 05-10-2021 09:00:00 10.51667 C 9.32 g/m*3 10.52 C 0.4 km/h
155 05-10-2021 10:00:00 11.51667 C 9.9 g/m*3 11.52 C 0.13333 km/h
156 05-10-2021 11:00:00 12.875 C 10.36 g/m*3 12.88 C 3.34167 km/h
157 05-10-2021 12:00:00 14.53333 C 10.28 g/m*3 14.53 C 4.40833 km/h
158 05-10-2021 13:00:00 15.95833 C 9.85 g/m*3 15.96 C 8.05833 km/h
159 05-10-2021 14:00:00 17.5 C 10.08 g/m*3 17.5 C 11.29167 km/h
160 05-10-2021 15:00:00 17.73333 C 10.48 g/m*3 17.73 C 5.09167 km/h
161 05-10-2021 16:00:00 17.575 C 10.61 g/m*3 17.58 C 2.68333 km/h
162 05-10-2021 17:00:00 15.775 C 11.28 g/m*3 15.78 C 1.73333 km/h
163 05-10-2021 18:00:00 14.3 C 11.23 g/m*3 14.3 C 0.93333 km/h
164 05-10-2021 19:00:00 13.65 C 10.97 g/m*3 13.65 C 5.49167 km/h
165 05-10-2021 20:00:00 12.8 C 10.3 g/m*3 12.8 C 6.15833 km/h
166 05-10-2021 21:00:00 11.70833 C 9.69 g/m*3 11.71 C 5.35833 km/h
167 05-10-2021 22:00:00 11.075 C 9.35 g/m*3 11.08 C 5.21667 km/h
168 05-10-2021 23:00:00 10.975 C 9.32 g/m*3 10.98 C 4.81667 km/h
169 06-10-2021 00:00:00 11.025 C 9.27 g/m*3 11.03 C 8.45833 km/h
170 06-10-2021 01:00:00 11.09167 C 9.17 g/m*3 11.09 C 7.39167 km/h
171 06-10-2021 02:00:00 10.775 C 8.98 g/m*3 10.42 C 5.75833 km/h
172 06-10-2021 03:00:00 11.3 C 9.04 g/m*3 11.3 C 10.5 km/h
173 06-10-2021 04:00:00 11.09167 C 8.84 g/m*3 11.09 C 9 km/h
174 06-10-2021 05:00:00 10.85 C 8.77 g/m*3 9.7 C 9.675 km/h
175 06-10-2021 06:00:00 10.45 C 8.66 g/m*3 10.45 C 4.54167 km/h
Sensor: Nr:Datum:Temp:Abs-Feuchte:Windchill:Wind:
Aussen-T/F 176 06-10-2021 07:00:00 10.09167 C 8.58 g/m*3 9.83 C 5.08333 km/h
177 06-10-2021 08:00:00 10.825 C 8.79 g/m*3 10.08 C 7.50833 km/h
178 06-10-2021 09:00:00 11.70833 C 8.84 g/m*3 11.71 C 14.5 km/h
179 06-10-2021 10:00:00 12.53333 C 8.91 g/m*3 12.53 C 16.1 km/h
180 06-10-2021 11:00:00 12.10833 C 9.01 g/m*3 12.11 C 9.275 km/h
181 06-10-2021 12:00:00 12.375 C 9.14 g/m*3 12.38 C 13.03333 km/h
182 06-10-2021 13:00:00 13.23333 C 9.05 g/m*3 13.23 C 16.36667 km/h
183 06-10-2021 14:00:00 13.91667 C 9.33 g/m*3 13.92 C 14.63333 km/h
184 06-10-2021 15:00:00 13.93333 C 9.22 g/m*3 13.93 C 15.7 km/h
185 06-10-2021 16:00:00 13.49167 C 9.25 g/m*3 13.49 C 12.63333 km/h
186 06-10-2021 17:00:00 13.95833 C 9.49 g/m*3 13.96 C 13.15833 km/h
187 06-10-2021 18:00:00 13.00833 C 9.39 g/m*3 13.01 C 6.71667 km/h
188 06-10-2021 19:00:00 12.51667 C 9.41 g/m*3 12.52 C 5.88333 km/h
189 06-10-2021 20:00:00 11.8 C 9.46 g/m*3 11.8 C 5.35833 km/h
190 06-10-2021 21:00:00 11.35 C 9.46 g/m*3 11.35 C 4.41667 km/h
191 06-10-2021 22:00:00 11.16667 C 9.47 g/m*3 11.17 C 6.3 km/h
192 06-10-2021 23:00:00 11.09167 C 9.46 g/m*3 11.09 C 5.225 km/h
193 07-10-2021 00:00:00 11.05 C 9.52 g/m*3 11.05 C 5.5 km/h
194 07-10-2021 01:00:00 10.98333 C 9.5 g/m*3 10.98 C 4.40833 km/h
195 07-10-2021 02:00:00 11.01667 C 9.52 g/m*3 11.02 C 1.6 km/h
196 07-10-2021 03:00:00 10.98333 C 9.5 g/m*3 10.98 C 0.13333 km/h
197 07-10-2021 04:00:00 10.9 C 9.54 g/m*3 10.9 C 0.66667 km/h
198 07-10-2021 05:00:00 11.03333 C 9.63 g/m*3 11.03 C 0.13333 km/h
199 07-10-2021 06:00:00 11.1 C 9.67 g/m*3 11.1 C 0 km/h
200 07-10-2021 07:00:00 11.05833 C 9.64 g/m*3 11.06 C 0 km/h
Sensor: Nr:Datum:Temp:Abs-Feuchte:Windchill:Wind:
Aussen-T/F 201 07-10-2021 08:00:00 11.19167 C 9.73 g/m*3 11.19 C 0 km/h
202 07-10-2021 09:00:00 11.65 C 10.01 g/m*3 11.65 C 1.73333 km/h
203 07-10-2021 10:00:00 12.03333 C 10.18 g/m*3 12.03 C 0.93333 km/h
204 07-10-2021 11:00:00 12.79167 C 10.69 g/m*3 12.79 C 1.06667 km/h
205 07-10-2021 12:00:00 13.61667 C 10.68 g/m*3 13.62 C 2.13333 km/h
206 07-10-2021 13:00:00 14.575 C 10.56 g/m*3 14.58 C 2.675 km/h
207 07-10-2021 14:00:00 15.33333 C 10.52 g/m*3 15.33 C 5.08333 km/h
208 07-10-2021 15:00:00 16.125 C 10.39 g/m*3 16.13 C 7.24167 km/h
209 07-10-2021 16:00:00 16.325 C 10.25 g/m*3 16.33 C 9.15 km/h
210 07-10-2021 17:00:00 16.525 C 10.51 g/m*3 16.52 C 3.475 km/h
211 07-10-2021 18:00:00 15.71667 C 10.64 g/m*3 15.72 C 3.06667 km/h
212 07-10-2021 19:00:00 12.45833 C 9.51 g/m*3 12.46 C 3.46667 km/h
213 07-10-2021 20:00:00 10.85833 C 8.97 g/m*3 10.86 C 1.46667 km/h
214 07-10-2021 21:00:00 9.58333 C 8.43 g/m*3 9.58 C 0.13333 km/h
215 07-10-2021 22:00:00 8.81667 C 8.12 g/m*3 8.82 C 0 km/h
216 07-10-2021 23:00:00 8.23333 C 7.89 g/m*3 8.23 C 0 km/h
217 08-10-2021 00:00:00 7.75 C 7.69 g/m*3 7.75 C 0 km/h
218 08-10-2021 01:00:00 7.275 C 7.49 g/m*3 7.28 C 0 km/h
219 08-10-2021 02:00:00 7.39167 C 7.58 g/m*3 7.39 C 0 km/h
220 08-10-2021 03:00:00 8.025 C 7.95 g/m*3 8.03 C 0 km/h
221 08-10-2021 04:00:00 8.15833 C 8.02 g/m*3 8.16 C 0.13333 km/h
222 08-10-2021 05:00:00 8.125 C 8 g/m*3 8.13 C 0.13333 km/h
223 08-10-2021 06:00:00 7.99167 C 7.99 g/m*3 7.99 C 0.13333 km/h
224 08-10-2021 07:00:00 7.925 C 7.93 g/m*3 7.93 C 0.26667 km/h
225 08-10-2021 08:00:00 8.05833 C 8.05 g/m*3 8.06 C 0.26667 km/h
Sensor: Nr:Datum:Temp:Abs-Feuchte:Windchill:Wind:
Aussen-T/F 226 08-10-2021 09:00:00 8.475 C 8.27 g/m*3 8.48 C 1.46667 km/h
227 08-10-2021 10:00:00 8.86667 C 8.48 g/m*3 8.87 C 2.8 km/h
228 08-10-2021 11:00:00 9.225 C 8.68 g/m*3 9.23 C 3.33333 km/h
229 08-10-2021 12:00:00 10.18333 C 9.23 g/m*3 10.18 C 1.46667 km/h
230 08-10-2021 13:00:00 11.825 C 10.26 g/m*3 11.83 C 0.26667 km/h
231 08-10-2021 14:00:00 13.41667 C 11.28 g/m*3 13.42 C 0.13333 km/h
232 08-10-2021 15:00:00 15.525 C 11.3 g/m*3 15.53 C 6.85 km/h
233 08-10-2021 16:00:00 17.325 C 10.86 g/m*3 17.33 C 8.05833 km/h
234 08-10-2021 17:00:00 17.06667 C 11.08 g/m*3 17.07 C 3.33333 km/h
235 08-10-2021 18:00:00 16.18333 C 10.88 g/m*3 16.18 C 1.73333 km/h
236 08-10-2021 19:00:00 12.90833 C 9.85 g/m*3 12.91 C 1.33333 km/h
237 08-10-2021 20:00:00 11.71667 C 9.49 g/m*3 11.72 C 0.26667 km/h
238 08-10-2021 21:00:00 10.61667 C 8.96 g/m*3 10.62 C 0.13333 km/h
239 08-10-2021 22:00:00 9.78333 C 8.64 g/m*3 9.78 C 0.13333 km/h
240 08-10-2021 23:00:00 9.40833 C 8.54 g/m*3 9.41 C 0.53333 km/h
241 09-10-2021 00:00:00 9.14167 C 8.45 g/m*3 9.14 C 2 km/h
242 09-10-2021 01:00:00 8.78333 C 8.26 g/m*3 8.78 C 0.93333 km/h
243 09-10-2021 02:00:00 8.24167 C 7.98 g/m*3 8.24 C 1.06667 km/h
244 09-10-2021 03:00:00 7.55 C 7.63 g/m*3 7.55 C 0.13333 km/h
245 09-10-2021 04:00:00 7.025 C 7.4 g/m*3 7.03 C 0.4 km/h
246 09-10-2021 05:00:00 6.8 C 7.31 g/m*3 6.8 C 1.33333 km/h
247 09-10-2021 06:00:00 6.84167 C 7.36 g/m*3 6.84 C 0.8 km/h
248 09-10-2021 07:00:00 5.875 C 6.87 g/m*3 5.88 C 0 km/h
249 09-10-2021 08:00:00 6.05 C 6.99 g/m*3 6.05 C 0 km/h
250 09-10-2021 09:00:00 6.65 C 7.3 g/m*3 6.65 C 0 km/h
Sensor: Nr:Datum:Temp:Abs-Feuchte:Windchill:Wind:
Aussen-T/F 251 09-10-2021 10:00:00 7.28333 C 7.66 g/m*3 7.28 C 0.26667 km/h
252 09-10-2021 11:00:00 8.63333 C 8.35 g/m*3 8.63 C 0.8 km/h
253 09-10-2021 12:00:00 10 C 9.11 g/m*3 10 C 2.26667 km/h
254 09-10-2021 13:00:00 11.84167 C 10.22 g/m*3 11.84 C 2 km/h
255 09-10-2021 14:00:00 13.51667 C 10.63 g/m*3 13.52 C 1.6 km/h
256 09-10-2021 15:00:00 14.85833 C 10.59 g/m*3 14.86 C 2.8 km/h
257 09-10-2021 16:00:00 14.11667 C 10.27 g/m*3 14.12 C 2.66667 km/h
258 09-10-2021 17:00:00 14.89167 C 10.38 g/m*3 14.89 C 3.875 km/h
259 09-10-2021 18:00:00 14.46667 C 9.87 g/m*3 14.47 C 3.2 km/h
260 09-10-2021 19:00:00 11.56667 C 8.83 g/m*3 11.57 C 4.00833 km/h
261 09-10-2021 20:00:00 10.28333 C 8.4 g/m*3 10.28 C 2.13333 km/h
262 09-10-2021 21:00:00 9.41667 C 8.15 g/m*3 9.42 C 1.06667 km/h
263 09-10-2021 22:00:00 8.53333 C 7.75 g/m*3 8.53 C 0.26667 km/h
264 09-10-2021 23:00:00 7.325 C 7.28 g/m*3 7.33 C 0.26667 km/h
265 10-10-2021 00:00:00 6.59167 C 7.04 g/m*3 6.59 C 0 km/h
266 10-10-2021 01:00:00 6.20833 C 6.92 g/m*3 6.21 C 1.46667 km/h
267 10-10-2021 02:00:00 5.46667 C 6.59 g/m*3 5.47 C 0 km/h
268 10-10-2021 03:00:00 4.63333 C 6.25 g/m*3 4.63 C 0 km/h
269 10-10-2021 04:00:00 4.81667 C 6.38 g/m*3 4.82 C 0 km/h
270 10-10-2021 05:00:00 4.90833 C 6.45 g/m*3 4.91 C 0.4 km/h
271 10-10-2021 06:00:00 4.75833 C 6.4 g/m*3 4.76 C 0 km/h
272 10-10-2021 07:00:00 4.40833 C 6.26 g/m*3 4.41 C 0.26667 km/h
273 10-10-2021 08:00:00 4.25833 C 6.21 g/m*3 4.26 C 0.4 km/h
274 10-10-2021 09:00:00 4.525 C 6.33 g/m*3 4.53 C 1.2 km/h
275 10-10-2021 10:00:00 5.13333 C 6.62 g/m*3 5.13 C 1.06667 km/h
Sensor: Nr:Datum:Temp:Abs-Feuchte:Windchill:Wind:
Aussen-T/F 276 10-10-2021 11:00:00 6.00833 C 7.04 g/m*3 6.01 C 1.6 km/h
277 10-10-2021 12:00:00 7.20833 C 7.62 g/m*3 7.21 C 0.8 km/h
278 10-10-2021 13:00:00 9.46667 C 8.78 g/m*3 9.47 C 1.2 km/h
279 10-10-2021 14:00:00 11.66667 C 9.69 g/m*3 11.67 C 0.26667 km/h
280 10-10-2021 15:00:00 13.06667 C 9.68 g/m*3 13.07 C 1.2 km/h
281 10-10-2021 16:00:00 12.41667 C 9.31 g/m*3 12.42 C 1.6 km/h
282 10-10-2021 17:00:00 12.51667 C 9.42 g/m*3 12.52 C 3.6 km/h
283 10-10-2021 18:00:00 12.40833 C 8.95 g/m*3 12.41 C 5.60833 km/h
284 10-10-2021 19:00:00 9.49167 C 7.88 g/m*3 9.49 C 4.40833 km/h
285 10-10-2021 20:00:00 7.65833 C 7.29 g/m*3 7.66 C 0 km/h
286 10-10-2021 21:00:00 6.50833 C 6.93 g/m*3 6.51 C 0.13333 km/h
287 10-10-2021 22:00:00 6.00833 C 6.81 g/m*3 6.01 C 0 km/h
288 10-10-2021 23:00:00 5.50833 C 6.61 g/m*3 5.51 C 0.4 km/h
289 11-10-2021 00:00:00 5.075 C 6.49 g/m*3 5.08 C 0.4 km/h
290 11-10-2021 01:00:00 4.725 C 6.34 g/m*3 4.72 C 0.13333 km/h
291 11-10-2021 02:00:00 4.53333 C 6.27 g/m*3 4.53 C 1.06667 km/h
292 11-10-2021 03:00:00 4.2 C 6.14 g/m*3 4.2 C 0.13333 km/h
293 11-10-2021 04:00:00 4.78333 C 6.43 g/m*3 4.78 C 0 km/h
294 11-10-2021 05:00:00 4.925 C 6.49 g/m*3 4.93 C 0 km/h
295 11-10-2021 06:00:00 4.93333 C 6.49 g/m*3 4.93 C 0 km/h
296 11-10-2021 07:00:00 5.75833 C 6.86 g/m*3 5.76 C 1.46667 km/h
297 11-10-2021 08:00:00 6.38333 C 7.15 g/m*3 6.38 C 1.86667 km/h
298 11-10-2021 09:00:00 7.03333 C 7.47 g/m*3 7.03 C 1.73333 km/h
299 11-10-2021 10:00:00 7.78333 C 7.87 g/m*3 7.78 C 1.46667 km/h
300 11-10-2021 11:00:00 9.075 C 8.57 g/m*3 9.07 C 0.4 km/h
Sensor: Nr:Datum:Temp:Abs-Feuchte:Windchill:Wind:
Aussen-T/F 301 11-10-2021 12:00:00 11.06667 C 9.61 g/m*3 11.07 C 2.675 km/h
302 11-10-2021 13:00:00 13.075 C 9.9 g/m*3 13.08 C 6.85833 km/h
303 11-10-2021 14:00:00 13.55 C 9.7 g/m*3 13.55 C 6.975 km/h
304 11-10-2021 15:00:00 13.81667 C 9.4 g/m*3 13.82 C 8.31667 km/h
305 11-10-2021 16:00:00 14.075 C 9.28 g/m*3 14.08 C 8.05 km/h
306 11-10-2021 17:00:00 14.05833 C 9.26 g/m*3 14.06 C 5.225 km/h
307 11-10-2021 18:00:00 13.13333 C 9.28 g/m*3 13.13 C 2.66667 km/h
308 11-10-2021 19:00:00 10.725 C 8.61 g/m*3 10.73 C 4.53333 km/h
309 11-10-2021 20:00:00 10.15 C 8.63 g/m*3 10.15 C 1.33333 km/h
310 11-10-2021 21:00:00 9.74167 C 8.45 g/m*3 9.74 C 0 km/h
311 11-10-2021 22:00:00 9.84167 C 8.64 g/m*3 9.84 C 0.26667 km/h
312 11-10-2021 23:00:00 9.83333 C 8.74 g/m*3 9.83 C 0.93333 km/h
313 12-10-2021 00:00:00 9.775 C 8.75 g/m*3 9.78 C 0.26667 km/h
314 12-10-2021 01:00:00 9.63333 C 8.72 g/m*3 9.63 C 0.66667 km/h
315 12-10-2021 02:00:00 9.45 C 8.62 g/m*3 9.45 C 0 km/h
316 12-10-2021 03:00:00 9.4 C 8.63 g/m*3 9.4 C 0.66667 km/h
317 12-10-2021 04:00:00 9.5 C 8.74 g/m*3 9.5 C 0.26667 km/h
318 12-10-2021 05:00:00 9.58333 C 8.78 g/m*3 9.58 C 0.66667 km/h
319 12-10-2021 06:00:00 9.58333 C 8.78 g/m*3 9.58 C 1.33333 km/h
320 12-10-2021 07:00:00 9.38333 C 8.67 g/m*3 9.38 C 0.26667 km/h
321 12-10-2021 08:00:00 9.39167 C 8.68 g/m*3 9.39 C 3.33333 km/h
322 12-10-2021 09:00:00 9.70833 C 8.87 g/m*3 9.71 C 3.06667 km/h
323 12-10-2021 10:00:00 10.49167 C 9.33 g/m*3 10.49 C 3.86667 km/h
324 12-10-2021 11:00:00 10.825 C 9.48 g/m*3 10.83 C 3.60833 km/h
325 12-10-2021 12:00:00 11.54167 C 9.78 g/m*3 11.54 C 6.85833 km/h
Sensor: Nr:Datum:Temp:Abs-Feuchte:Windchill:Wind:
Aussen-T/F 326 12-10-2021 13:00:00 11.70833 C 9.89 g/m*3 11.71 C 3.74167 km/h
327 12-10-2021 14:00:00 11.73333 C 9.96 g/m*3 11.73 C 2.26667 km/h
328 12-10-2021 15:00:00 11.55833 C 9.87 g/m*3 11.56 C 1.6 km/h
329 12-10-2021 16:00:00 11.99167 C 10.23 g/m*3 11.99 C 2 km/h
330 12-10-2021 17:00:00 11.65833 C 10.01 g/m*3 11.66 C 4.53333 km/h
331 12-10-2021 18:00:00 11.21667 C 9.7 g/m*3 11.22 C 2.95 km/h
332 12-10-2021 19:00:00 10.20833 C 9.06 g/m*3 10.21 C 0.8 km/h
333 12-10-2021 20:00:00 9.21667 C 8.53 g/m*3 9.22 C 2.8 km/h
334 12-10-2021 21:00:00 8.05 C 7.92 g/m*3 8.05 C 0.4 km/h
335 12-10-2021 22:00:00 7.86667 C 7.87 g/m*3 7.87 C 0 km/h
336 12-10-2021 23:00:00 7.55 C 7.71 g/m*3 7.55 C 2.13333 km/h
337 13-10-2021 00:00:00 6.93333 C 7.41 g/m*3 6.93 C 0.4 km/h
338 13-10-2021 01:00:00 6.41667 C 7.16 g/m*3 6.42 C 0.4 km/h
339 13-10-2021 02:00:00 5.81667 C 6.88 g/m*3 5.82 C 0.4 km/h
340 13-10-2021 03:00:00 5.56667 C 6.79 g/m*3 5.57 C 0 km/h
341 13-10-2021 04:00:00 5.66667 C 6.85 g/m*3 5.67 C 0 km/h
342 13-10-2021 05:00:00 6.125 C 7.1 g/m*3 6.13 C 2.675 km/h
343 13-10-2021 06:00:00 6.29167 C 7.18 g/m*3 6.29 C 2.4 km/h
344 13-10-2021 07:00:00 6.36667 C 7.21 g/m*3 6.37 C 1.46667 km/h
345 13-10-2021 08:00:00 6.61667 C 7.33 g/m*3 6.62 C 2 km/h
346 13-10-2021 09:00:00 7.08333 C 7.56 g/m*3 7.08 C 2.13333 km/h
347 13-10-2021 10:00:00 7.79167 C 7.91 g/m*3 7.79 C 3.2 km/h
348 13-10-2021 11:00:00 8.73333 C 8.41 g/m*3 8.73 C 2.4 km/h
349 13-10-2021 12:00:00 9.6 C 8.82 g/m*3 9.6 C 0.8 km/h
350 13-10-2021 13:00:00 10.425 C 9.07 g/m*3 10.43 C 2.4 km/h
Sensor: Nr:Datum:Temp:Abs-Feuchte:Windchill:Wind:
Aussen-T/F 351 13-10-2021 14:00:00 11.40833 C 9.17 g/m*3 11.41 C 2.4 km/h
352 13-10-2021 15:00:00 11.98333 C 9.24 g/m*3 11.98 C 1.6 km/h
353 13-10-2021 16:00:00 11.79167 C 9.05 g/m*3 11.79 C 6.70833 km/h
354 13-10-2021 17:00:00 11.00833 C 9.14 g/m*3 11.01 C 2.93333 km/h
355 13-10-2021 18:00:00 10.00833 C 8.65 g/m*3 9.63 C 5.46667 km/h
356 13-10-2021 19:00:00 8.925 C 8.2 g/m*3 8.93 C 3.46667 km/h
357 13-10-2021 20:00:00 8.825 C 8.26 g/m*3 8.82 C 1.06667 km/h
358 13-10-2021 21:00:00 8.9 C 8.33 g/m*3 8.9 C 1.46667 km/h
359 13-10-2021 22:00:00 8.74167 C 8.31 g/m*3 8.74 C 0.66667 km/h
360 13-10-2021 23:00:00 8.79167 C 8.35 g/m*3 8.79 C 3.06667 km/h
361 14-10-2021 00:00:00 8.81667 C 8.36 g/m*3 8.82 C 3.33333 km/h
362 14-10-2021 01:00:00 8.90833 C 8.41 g/m*3 8.91 C 3.21667 km/h
363 14-10-2021 02:00:00 8.91667 C 8.42 g/m*3 8.92 C 1.6 km/h
364 14-10-2021 03:00:00 8.84167 C 8.38 g/m*3 8.84 C 2.66667 km/h
365 14-10-2021 04:00:00 8.95 C 8.41 g/m*3 8.95 C 4.94167 km/h
366 14-10-2021 05:00:00 9.125 C 8.44 g/m*3 8.74 C 5.08333 km/h
367 14-10-2021 06:00:00 9.26667 C 8.46 g/m*3 8.02 C 8.6 km/h
368 14-10-2021 07:00:00 9.31667 C 8.43 g/m*3 8.57 C 6.44167 km/h
369 14-10-2021 08:00:00 9.4 C 8.5 g/m*3 9.4 C 4.40833 km/h
370 14-10-2021 09:00:00 9.65833 C 8.62 g/m*3 9.66 C 4.13333 km/h
371 14-10-2021 10:00:00 10.625 C 8.8 g/m*3 9.57 C 8.89167 km/h
372 14-10-2021 11:00:00 11.29167 C 9.01 g/m*3 11.29 C 6.83333 km/h
373 14-10-2021 12:00:00 11.875 C 9.24 g/m*3 11.88 C 7.10833 km/h
374 14-10-2021 13:00:00 12.96667 C 9.62 g/m*3 12.97 C 9.825 km/h
375 14-10-2021 14:00:00 14.09167 C 10.08 g/m*3 14.09 C 8.33333 km/h
Sensor: Nr:Datum:Temp:Abs-Feuchte:Windchill:Wind:
Aussen-T/F 376 14-10-2021 15:00:00 13.80833 C 10.22 g/m*3 13.81 C 4.69167 km/h
377 14-10-2021 16:00:00 13.55 C 10.33 g/m*3 13.55 C 1.73333 km/h
378 14-10-2021 17:00:00 13.5 C 10.38 g/m*3 13.5 C 1.73333 km/h
379 14-10-2021 18:00:00 12.94167 C 10.17 g/m*3 12.94 C 3.06667 km/h
380 14-10-2021 19:00:00 12.14167 C 9.86 g/m*3 12.14 C 2.8 km/h
381 14-10-2021 20:00:00 11.775 C 9.78 g/m*3 11.78 C 2.53333 km/h
382 14-10-2021 21:00:00 11.34167 C 9.55 g/m*3 11.34 C 1.6 km/h
383 14-10-2021 22:00:00 10.53333 C 9.05 g/m*3 10.53 C 2.66667 km/h
384 14-10-2021 23:00:00 9.525 C 8.53 g/m*3 9.53 C 1.73333 km/h
385 15-10-2021 00:00:00 9.11667 C 8.4 g/m*3 9.12 C 1.86667 km/h
386 15-10-2021 01:00:00 8.89167 C 8.32 g/m*3 8.89 C 2.26667 km/h
387 15-10-2021 02:00:00 8.20833 C 7.93 g/m*3 8.21 C 3.2 km/h
388 15-10-2021 03:00:00 7.65 C 7.66 g/m*3 7.65 C 2 km/h
389 15-10-2021 04:00:00 7.43333 C 7.57 g/m*3 6.43 C 6.30833 km/h
390 15-10-2021 05:00:00 7.05833 C 7.39 g/m*3 7.06 C 2.80833 km/h
391 15-10-2021 06:00:00 6.375 C 7.07 g/m*3 6.38 C 0.93333 km/h
392 15-10-2021 07:00:00 6.01667 C 6.95 g/m*3 6.02 C 2.28333 km/h
393 15-10-2021 08:00:00 7.45 C 7.67 g/m*3 5.3 C 11.56667 km/h
394 15-10-2021 09:00:00 8.30833 C 7.95 g/m*3 6.13 C 12.9 km/h
395 15-10-2021 10:00:00 9.25 C 8.22 g/m*3 7.16 C 13.7 km/h
396 15-10-2021 11:00:00 10.79167 C 8.64 g/m*3 9.28 C 11.95 km/h
397 15-10-2021 12:00:00 11.775 C 9.03 g/m*3 11.78 C 9.69167 km/h
398 15-10-2021 13:00:00 12.54167 C 9.32 g/m*3 12.54 C 8.19167 km/h
399 15-10-2021 14:00:00 12.68333 C 9.68 g/m*3 12.68 C 5.64167 km/h
400 15-10-2021 15:00:00 12.40833 C 10.15 g/m*3 12.41 C 1.06667 km/h
Sensor: Nr:Datum:Temp:Abs-Feuchte:Windchill:Wind:
Aussen-T/F 401 15-10-2021 16:00:00 12.23333 C 10.17 g/m*3 12.23 C 0.53333 km/h
402 15-10-2021 17:00:00 12.14167 C 10.21 g/m*3 12.14 C 0.26667 km/h
403 15-10-2021 18:00:00 11.525 C 9.76 g/m*3 11.53 C 3.73333 km/h
404 15-10-2021 19:00:00 10.175 C 8.95 g/m*3 9.67 C 6.00833 km/h
405 15-10-2021 20:00:00 8.96667 C 8.34 g/m*3 8.97 C 2.53333 km/h
406 15-10-2021 21:00:00 7.65 C 7.64 g/m*3 7.65 C 0 km/h
407 15-10-2021 22:00:00 6.875 C 7.31 g/m*3 6.88 C 0 km/h
408 15-10-2021 23:00:00 7.125 C 7.5 g/m*3 7.13 C 0.13333 km/h
409 16-10-2021 00:00:00 7.25 C 7.56 g/m*3 7.25 C 0.13333 km/h
410 16-10-2021 01:00:00 7.05 C 7.46 g/m*3 7.05 C 0.4 km/h
411 16-10-2021 02:00:00 6.83333 C 7.39 g/m*3 6.83 C 1.33333 km/h
412 16-10-2021 03:00:00 6.76667 C 7.4 g/m*3 6.77 C 3.74167 km/h
413 16-10-2021 04:00:00 6.63333 C 7.34 g/m*3 6.63 C 2.8 km/h
414 16-10-2021 05:00:00 6.44167 C 7.25 g/m*3 6.44 C 0.53333 km/h
415 16-10-2021 06:00:00 6.34167 C 7.2 g/m*3 6.34 C 1.33333 km/h
416 16-10-2021 07:00:00 6.21667 C 7.14 g/m*3 6.22 C 0.53333 km/h
417 16-10-2021 08:00:00 6.35833 C 7.21 g/m*3 6.36 C 1.46667 km/h
418 16-10-2021 09:00:00 6.35833 C 7.21 g/m*3 6.36 C 0.13333 km/h
419 16-10-2021 10:00:00 6.7 C 7.38 g/m*3 6.7 C 0.8 km/h
420 16-10-2021 11:00:00 7.00833 C 7.56 g/m*3 7.01 C 1.2 km/h
421 16-10-2021 12:00:00 7.30833 C 7.72 g/m*3 7.31 C 3.2 km/h
422 16-10-2021 13:00:00 7.78333 C 7.96 g/m*3 7.78 C 3.06667 km/h
423 16-10-2021 14:00:00 8.48333 C 8.34 g/m*3 8.48 C 2.93333 km/h
424 16-10-2021 15:00:00 8.94167 C 8.52 g/m*3 8.94 C 0 km/h
425 16-10-2021 16:00:00 9.45833 C 8.81 g/m*3 9.46 C 0.66667 km/h
Sensor: Nr:Datum:Temp:Abs-Feuchte:Windchill:Wind:
Aussen-T/F 426 16-10-2021 17:00:00 10.48333 C 9.4 g/m*3 10.48 C 0 km/h
427 16-10-2021 18:00:00 9.9 C 8.96 g/m*3 9.9 C 0.53333 km/h
428 16-10-2021 19:00:00 9.35833 C 8.66 g/m*3 9.36 C 2 km/h
429 16-10-2021 20:00:00 8.725 C 8.32 g/m*3 8.73 C 2.93333 km/h
430 16-10-2021 21:00:00 8.26667 C 8.07 g/m*3 8.27 C 1.06667 km/h
431 16-10-2021 22:00:00 8.25 C 8.07 g/m*3 8.25 C 0 km/h
432 16-10-2021 23:00:00 8.39167 C 8.22 g/m*3 8.39 C 0 km/h
433 17-10-2021 00:00:00 8.50833 C 8.29 g/m*3 8.51 C 0 km/h
434 17-10-2021 01:00:00 8.49167 C 8.28 g/m*3 8.49 C 0 km/h
435 17-10-2021 02:00:00 8.40833 C 8.23 g/m*3 8.41 C 0 km/h
436 17-10-2021 03:00:00 8.56667 C 8.32 g/m*3 8.57 C 0 km/h
437 17-10-2021 04:00:00 8.49167 C 8.28 g/m*3 8.49 C 0 km/h
438 17-10-2021 05:00:00 8.28333 C 8.17 g/m*3 8.28 C 0 km/h
439 17-10-2021 06:00:00 8.11667 C 8.08 g/m*3 8.12 C 0 km/h
440 17-10-2021 07:00:00 8.125 C 8.08 g/m*3 8.13 C 0 km/h
441 17-10-2021 08:00:00 8.20833 C 8.13 g/m*3 8.21 C 0 km/h
442 17-10-2021 09:00:00 8.49167 C 8.28 g/m*3 8.49 C 0 km/h
443 17-10-2021 10:00:00 8.975 C 8.54 g/m*3 8.98 C 0.66667 km/h
444 17-10-2021 11:00:00 9.70833 C 8.89 g/m*3 9.71 C 0.4 km/h
445 17-10-2021 12:00:00 10.8 C 9.14 g/m*3 10.8 C 0.8 km/h
446 17-10-2021 13:00:00 11.81667 C 9.1 g/m*3 11.82 C 1.6 km/h
447 17-10-2021 14:00:00 12.90833 C 8.38 g/m*3 12.91 C 1.33333 km/h
448 17-10-2021 15:00:00 13.6 C 9.13 g/m*3 13.6 C 0.13333 km/h
449 17-10-2021 16:00:00 12.95833 C 9.33 g/m*3 12.96 C 1.46667 km/h
450 17-10-2021 17:00:00 12.13333 C 9.04 g/m*3 12.13 C 4.69167 km/h
Sensor: Nr:Datum:Temp:Abs-Feuchte:Windchill:Wind:
Aussen-T/F 451 17-10-2021 18:00:00 10.34167 C 8.11 g/m*3 9.82 C 6.15833 km/h
452 17-10-2021 19:00:00 8.775 C 7.68 g/m*3 8.78 C 2.675 km/h
453 17-10-2021 20:00:00 7.78333 C 7.45 g/m*3 7.78 C 0 km/h
454 17-10-2021 21:00:00 7.2 C 7.28 g/m*3 7.2 C 0 km/h
455 17-10-2021 22:00:00 6.875 C 7.21 g/m*3 6.88 C 0 km/h
456 17-10-2021 23:00:00 6.51667 C 7.06 g/m*3 6.52 C 0.26667 km/h
457 18-10-2021 00:00:00 5.73333 C 6.71 g/m*3 5.73 C 0 km/h
458 18-10-2021 01:00:00 5.14167 C 6.49 g/m*3 5.14 C 0 km/h
459 18-10-2021 02:00:00 4.75833 C 6.35 g/m*3 4.76 C 0 km/h
460 18-10-2021 03:00:00 4.45 C 6.22 g/m*3 4.45 C 0 km/h
461 18-10-2021 04:00:00 4.15833 C 6.13 g/m*3 4.16 C 0.13333 km/h
462 18-10-2021 05:00:00 4.575 C 6.34 g/m*3 4.58 C 0 km/h
463 18-10-2021 06:00:00 4.68333 C 6.39 g/m*3 4.68 C 0 km/h
464 18-10-2021 07:00:00 4.59167 C 6.35 g/m*3 4.59 C 0 km/h
465 18-10-2021 08:00:00 4.43333 C 6.28 g/m*3 4.43 C 0.13333 km/h
466 18-10-2021 09:00:00 4.93333 C 6.56 g/m*3 4.93 C 0.26667 km/h
467 18-10-2021 10:00:00 5.74167 C 6.92 g/m*3 5.74 C 0.26667 km/h
468 18-10-2021 11:00:00 7.425 C 7.75 g/m*3 7.43 C 0.13333 km/h
469 18-10-2021 12:00:00 9.18333 C 8.68 g/m*3 9.18 C 2.94167 km/h
470 18-10-2021 13:00:00 10.6 C 9.08 g/m*3 9.99 C 6.70833 km/h
471 18-10-2021 14:00:00 12.16667 C 9.37 g/m*3 12.17 C 5.64167 km/h
472 18-10-2021 15:00:00 12.875 C 9.48 g/m*3 12.88 C 5.075 km/h
473 18-10-2021 16:00:00 13.03333 C 9.47 g/m*3 13.03 C 4.40833 km/h
474 18-10-2021 17:00:00 12.425 C 9.47 g/m*3 12.43 C 0.8 km/h
475 18-10-2021 18:00:00 10.8 C 8.81 g/m*3 10.8 C 1.06667 km/h
Sensor: Nr:Datum:Temp:Abs-Feuchte:Windchill:Wind:
Aussen-T/F 476 18-10-2021 19:00:00 9.175 C 8.2 g/m*3 9.18 C 2.93333 km/h
477 18-10-2021 20:00:00 8.35 C 7.91 g/m*3 8.35 C 1.86667 km/h
478 18-10-2021 21:00:00 7.83333 C 7.72 g/m*3 7.83 C 0.26667 km/h
479 18-10-2021 22:00:00 7.71667 C 7.72 g/m*3 7.72 C 0.8 km/h
480 18-10-2021 23:00:00 7.59167 C 7.68 g/m*3 7.59 C 0.53333 km/h
481 19-10-2021 00:00:00 7.525 C 7.7 g/m*3 7.53 C 0 km/h
482 19-10-2021 01:00:00 7.925 C 7.9 g/m*3 7.93 C 0 km/h
483 19-10-2021 02:00:00 7.85 C 7.86 g/m*3 7.85 C 0 km/h
484 19-10-2021 03:00:00 7.90833 C 7.89 g/m*3 7.91 C 0 km/h
485 19-10-2021 04:00:00 8.14167 C 8.01 g/m*3 8.14 C 0 km/h
486 19-10-2021 05:00:00 8.50833 C 8.27 g/m*3 8.51 C 0 km/h
487 19-10-2021 06:00:00 8.8 C 8.44 g/m*3 8.8 C 0 km/h
488 19-10-2021 07:00:00 9.1 C 8.61 g/m*3 9.1 C 0 km/h
489 19-10-2021 08:00:00 9.59167 C 8.88 g/m*3 9.59 C 0.26667 km/h
490 19-10-2021 09:00:00 10.19167 C 9.23 g/m*3 10.19 C 0 km/h
491 19-10-2021 10:00:00 10.975 C 9.7 g/m*3 10.98 C 0 km/h
492 19-10-2021 11:00:00 12.36667 C 10.68 g/m*3 12.37 C 3.35 km/h
493 19-10-2021 12:00:00 13.625 C 11.55 g/m*3 13.63 C 3.475 km/h
494 19-10-2021 13:00:00 14.36667 C 12.08 g/m*3 14.37 C 9.95833 km/h
495 19-10-2021 14:00:00 15.35833 C 12.64 g/m*3 15.36 C 11.15 km/h
496 19-10-2021 15:00:00 16.20833 C 13 g/m*3 16.21 C 10.20833 km/h
497 19-10-2021 16:00:00 16.86667 C 13.27 g/m*3 16.87 C 5.75833 km/h
498 19-10-2021 17:00:00 16.525 C 13.21 g/m*3 16.52 C 3.33333 km/h
499 19-10-2021 18:00:00 15.91667 C 12.63 g/m*3 15.92 C 5.475 km/h
500 19-10-2021 19:00:00 14.55 C 11.77 g/m*3 14.55 C 3.2 km/h
Sensor: Nr:Datum:Temp:Abs-Feuchte:Windchill:Wind:
Aussen-T/F 501 19-10-2021 20:00:00 13.35 C 11 g/m*3 13.35 C 0 km/h
502 19-10-2021 21:00:00 12.76667 C 10.69 g/m*3 12.77 C 0.66667 km/h
503 19-10-2021 22:00:00 12.06667 C 10.27 g/m*3 12.07 C 0 km/h
504 19-10-2021 23:00:00 11.73333 C 10.1 g/m*3 11.73 C 1.2 km/h
505 20-10-2021 00:00:00 11.625 C 10.01 g/m*3 11.63 C 0.26667 km/h
506 20-10-2021 01:00:00 10.45833 C 9.29 g/m*3 10.46 C 0 km/h
507 20-10-2021 02:00:00 10.15 C 9.17 g/m*3 10.15 C 0.13333 km/h
508 20-10-2021 03:00:00 9.825 C 8.99 g/m*3 9.82 C 0.13333 km/h
509 20-10-2021 04:00:00 9.55833 C 8.86 g/m*3 9.56 C 0 km/h
510 20-10-2021 05:00:00 9.775 C 8.99 g/m*3 9.78 C 0 km/h
511 20-10-2021 06:00:00 10.04167 C 9.15 g/m*3 10.04 C 0 km/h
512 20-10-2021 07:00:00 10.89167 C 9.68 g/m*3 10.89 C 0.66667 km/h
513 20-10-2021 08:00:00 11.15 C 9.83 g/m*3 11.15 C 0.13333 km/h
514 20-10-2021 09:00:00 11.9 C 10.36 g/m*3 11.9 C 0.8 km/h
515 20-10-2021 10:00:00 12.71667 C 10.92 g/m*3 12.72 C 0.53333 km/h
516 20-10-2021 11:00:00 14.01667 C 11.73 g/m*3 14.02 C 9.53333 km/h
517 20-10-2021 12:00:00 16.66667 C 12.15 g/m*3 16.67 C 13.7 km/h
518 20-10-2021 13:00:00 17.86667 C 12.5 g/m*3 17.87 C 12.9 km/h
519 20-10-2021 14:00:00 17.76667 C 12.64 g/m*3 17.77 C 11.00833 km/h
520 20-10-2021 15:00:00 16.99167 C 12.79 g/m*3 16.99 C 2.53333 km/h
521 20-10-2021 16:00:00 15.86667 C 12.58 g/m*3 15.87 C 1.2 km/h
522 20-10-2021 17:00:00 15.64167 C 12.64 g/m*3 15.64 C 4.81667 km/h
523 20-10-2021 18:00:00 15.33333 C 12.43 g/m*3 15.33 C 6.55833 km/h
524 20-10-2021 19:00:00 14.89167 C 12.17 g/m*3 14.89 C 3.06667 km/h
525 20-10-2021 20:00:00 14.76667 C 12.14 g/m*3 14.77 C 3.46667 km/h
Sensor: Nr:Datum:Temp:Abs-Feuchte:Windchill:Wind:
Aussen-T/F 526 20-10-2021 21:00:00 14.6 C 12.03 g/m*3 14.6 C 3.86667 km/h
527 20-10-2021 22:00:00 14.66667 C 12.16 g/m*3 14.67 C 5.21667 km/h
528 20-10-2021 23:00:00 14.8 C 12.16 g/m*3 14.8 C 2.4 km/h
529 21-10-2021 00:00:00 14.89167 C 12.17 g/m*3 14.89 C 4.55833 km/h
530 21-10-2021 01:00:00 15.375 C 12 g/m*3 15.38 C 8.33333 km/h
531 21-10-2021 02:00:00 15.675 C 11.85 g/m*3 15.68 C 7.78333 km/h
532 21-10-2021 03:00:00 14.8 C 11.28 g/m*3 14.8 C 21.325 km/h
533 21-10-2021 04:00:00 13.80833 C 9.51 g/m*3 13.81 C 23.85 km/h
534 21-10-2021 05:00:00 13.71667 C 9.09 g/m*3 13.72 C 23.05833 km/h
535 21-10-2021 06:00:00 13.70833 C 8.94 g/m*3 13.71 C 31.10833 km/h
536 21-10-2021 07:00:00 13.08333 C 8.9 g/m*3 13.08 C 32.71667 km/h
537 21-10-2021 08:00:00 12.375 C 8.95 g/m*3 12.38 C 27.225 km/h
538 21-10-2021 09:00:00 12.00833 C 8.5 g/m*3 12.01 C 25.6 km/h
539 21-10-2021 10:00:00 11.35833 C 8.18 g/m*3 11.36 C 18.5 km/h
540 21-10-2021 11:00:00 12.06667 C 8.31 g/m*3 12.07 C 24.13333 km/h
541 21-10-2021 12:00:00 12.225 C 8.57 g/m*3 12.23 C 17.83333 km/h
542 21-10-2021 13:00:00 13.3 C 8.74 g/m*3 13.3 C 21.175 km/h
543 21-10-2021 14:00:00 12.93333 C 8.87 g/m*3 12.93 C 16.76667 km/h
544 21-10-2021 15:00:00 13.325 C 8.92 g/m*3 13.33 C 13.825 km/h
545 21-10-2021 16:00:00 12.975 C 8.72 g/m*3 12.98 C 16.1 km/h
546 21-10-2021 17:00:00 10.53333 C 8.37 g/m*3 8.52 C 15.43333 km/h
547 21-10-2021 18:00:00 8.53333 C 7.87 g/m*3 7.18 C 8.45833 km/h
548 21-10-2021 19:00:00 8.29167 C 7.81 g/m*3 7.62 C 5.625 km/h
549 21-10-2021 20:00:00 8.00833 C 7.76 g/m*3 8.01 C 4.80833 km/h
550 21-10-2021 21:00:00 6.975 C 7.27 g/m*3 6.98 C 2.8 km/h
Sensor: Nr:Datum:Temp:Abs-Feuchte:Windchill:Wind:
Aussen-T/F 551 21-10-2021 22:00:00 6.125 C 6.91 g/m*3 6.13 C 2.93333 km/h
552 21-10-2021 23:00:00 5.4 C 6.61 g/m*3 5.4 C 0.8 km/h
553 22-10-2021 00:00:00 4.825 C 6.38 g/m*3 4.83 C 1.33333 km/h
554 22-10-2021 01:00:00 4.69167 C 6.34 g/m*3 4.69 C 1.46667 km/h
555 22-10-2021 02:00:00 4.50833 C 6.29 g/m*3 4.51 C 2 km/h
556 22-10-2021 03:00:00 5.13333 C 6.58 g/m*3 3.91 C 5.90833 km/h
557 22-10-2021 04:00:00 4.81667 C 6.41 g/m*3 4.82 C 4.81667 km/h
558 22-10-2021 05:00:00 4.80833 C 6.38 g/m*3 3.32 C 6.575 km/h
559 22-10-2021 06:00:00 4.52222 C 6.25 g/m*3 4.52 C 2.84444 km/h
560 22-10-2021 07:00:00 4.4 C 6.2 g/m*3 1.84 C 10.46667 km/h
561 22-10-2021 08:00:00 4.55833 C 6.22 g/m*3 2.36 C 9.00833 km/h
562 22-10-2021 09:00:00 5.04167 C 6.29 g/m*3 2.52 C 10.89167 km/h
563 22-10-2021 10:00:00 5.81667 C 6.42 g/m*3 2.73 C 15.16667 km/h
564 22-10-2021 11:00:00 6.84167 C 6.69 g/m*3 4.21 C 13.7 km/h
565 22-10-2021 12:00:00 8.24167 C 7.04 g/m*3 5.59 C 16.23333 km/h
566 22-10-2021 13:00:00 10 C 7.47 g/m*3 7.77 C 16.23333 km/h
567 22-10-2021 14:00:00 10.93333 C 7.5 g/m*3 8.99 C 15.7 km/h
568 22-10-2021 15:00:00 11.6 C 7.14 g/m*3 11.6 C 14.63333 km/h
569 22-10-2021 16:00:00 11.38333 C 6.97 g/m*3 11.38 C 15.83333 km/h
570 22-10-2021 17:00:00 11.20833 C 7.11 g/m*3 11.21 C 12.1 km/h
571 22-10-2021 18:00:00 10.68333 C 7.31 g/m*3 9.17 C 11.825 km/h
572 22-10-2021 19:00:00 9.75 C 7.44 g/m*3 8.29 C 10.225 km/h
573 22-10-2021 20:00:00 9.86667 C 7.43 g/m*3 8.1 C 12.36667 km/h
574 22-10-2021 21:00:00 9.9 C 7.51 g/m*3 8.3 C 11.28333 km/h
575 22-10-2021 22:00:00 9.15833 C 7.83 g/m*3 9.16 C 3.20833 km/h
Sensor: Nr:Datum:Temp:Abs-Feuchte:Windchill:Wind:
Aussen-T/F 576 22-10-2021 23:00:00 8.49167 C 7.94 g/m*3 8.49 C 2.93333 km/h
577 23-10-2021 00:00:00 8.175 C 7.85 g/m*3 8.18 C 2.66667 km/h
578 23-10-2021 01:00:00 8.025 C 7.85 g/m*3 8.03 C 1.33333 km/h
579 23-10-2021 02:00:00 7.51667 C 7.61 g/m*3 7.52 C 1.73333 km/h
580 23-10-2021 03:00:00 7.5 C 7.62 g/m*3 7.5 C 0.26667 km/h
581 23-10-2021 04:00:00 7.25833 C 7.51 g/m*3 7.26 C 0 km/h
582 23-10-2021 05:00:00 6.43333 C 7.09 g/m*3 6.43 C 0 km/h
583 23-10-2021 06:00:00 5.675 C 6.78 g/m*3 5.68 C 0.13333 km/h
584 23-10-2021 07:00:00 5.68333 C 6.81 g/m*3 5.68 C 0.26667 km/h
585 23-10-2021 08:00:00 5.875 C 6.93 g/m*3 5.88 C 0.66667 km/h
586 23-10-2021 09:00:00 7 C 7.52 g/m*3 7 C 0 km/h
587 23-10-2021 10:00:00 7.78333 C 7.91 g/m*3 7.78 C 0.8 km/h
588 23-10-2021 11:00:00 8.53333 C 8.29 g/m*3 8.53 C 0.13333 km/h
589 23-10-2021 12:00:00 9.64167 C 8.78 g/m*3 9.64 C 0.93333 km/h
590 23-10-2021 13:00:00 10.76667 C 8.79 g/m*3 10.77 C 2.13333 km/h
591 23-10-2021 14:00:00 11.53333 C 8.6 g/m*3 11.53 C 4.4 km/h
592 23-10-2021 15:00:00 12.175 C 8.42 g/m*3 12.18 C 3.46667 km/h
593 23-10-2021 16:00:00 12.29167 C 8.86 g/m*3 12.29 C 0.8 km/h
594 23-10-2021 17:00:00 11.85833 C 9.1 g/m*3 11.86 C 0 km/h
595 23-10-2021 18:00:00 10.34167 C 8.47 g/m*3 10.34 C 0 km/h
596 23-10-2021 19:00:00 8.55 C 7.74 g/m*3 8.55 C 0.13333 km/h
597 23-10-2021 20:00:00 6.91667 C 7.06 g/m*3 6.92 C 0 km/h
598 23-10-2021 21:00:00 5.75 C 6.63 g/m*3 5.75 C 0 km/h
599 23-10-2021 22:00:00 5.18333 C 6.47 g/m*3 5.18 C 0 km/h
600 23-10-2021 23:00:00 4.51667 C 6.19 g/m*3 4.52 C 0 km/h
Sensor: Nr:Datum:Temp:Abs-Feuchte:Windchill:Wind:
Aussen-T/F 601 24-10-2021 00:00:00 3.85 C 5.97 g/m*3 3.85 C 0 km/h
602 24-10-2021 01:00:00 3.35833 C 5.79 g/m*3 3.36 C 0 km/h
603 24-10-2021 02:00:00 4.23333 C 6.2 g/m*3 4.23 C 0 km/h
604 24-10-2021 03:00:00 4.48333 C 6.3 g/m*3 4.48 C 0.13333 km/h
605 24-10-2021 04:00:00 4.16667 C 6.17 g/m*3 4.17 C 0.4 km/h
606 24-10-2021 05:00:00 3.68333 C 5.98 g/m*3 3.68 C 0.8 km/h
607 24-10-2021 06:00:00 3 C 5.71 g/m*3 3 C 0.53333 km/h
608 24-10-2021 07:00:00 2.55833 C 5.54 g/m*3 2.56 C 0 km/h
609 24-10-2021 08:00:00 2.05 C 5.35 g/m*3 2.05 C 0 km/h
610 24-10-2021 09:00:00 1.59167 C 5.19 g/m*3 1.59 C 0 km/h
611 24-10-2021 10:00:00 2.01667 C 5.37 g/m*3 2.02 C 0 km/h
612 24-10-2021 11:00:00 3.4 C 5.92 g/m*3 3.4 C 0.13333 km/h
613 24-10-2021 12:00:00 5.41667 C 6.79 g/m*3 5.42 C 0.8 km/h
614 24-10-2021 13:00:00 7.625 C 7.91 g/m*3 7.63 C 2.66667 km/h
615 24-10-2021 14:00:00 8.975 C 8.55 g/m*3 8.98 C 4.01667 km/h
616 24-10-2021 15:00:00 10.59167 C 8.53 g/m*3 10.59 C 4.68333 km/h
617 24-10-2021 16:00:00 12.46667 C 8.59 g/m*3 12.47 C 3.075 km/h
618 24-10-2021 17:00:00 11.41667 C 8.48 g/m*3 11.42 C 1.33333 km/h
619 24-10-2021 18:00:00 8.95 C 7.56 g/m*3 8.95 C 0.8 km/h
620 24-10-2021 19:00:00 6.63333 C 6.93 g/m*3 6.63 C 2.93333 km/h
621 24-10-2021 20:00:00 6.19167 C 6.9 g/m*3 6.19 C 1.86667 km/h
622 24-10-2021 21:00:00 5.8 C 6.74 g/m*3 5.8 C 1.33333 km/h
623 24-10-2021 22:00:00 4.725 C 6.27 g/m*3 4.72 C 0 km/h
624 24-10-2021 23:00:00 3.85833 C 5.95 g/m*3 3.86 C 0.13333 km/h
625 25-10-2021 00:00:00 3.25833 C 5.75 g/m*3 3.26 C 0.13333 km/h
Sensor: Nr:Datum:Temp:Abs-Feuchte:Windchill:Wind:
Aussen-T/F 626 25-10-2021 01:00:00 2.975 C 5.66 g/m*3 2.98 C 0.26667 km/h
627 25-10-2021 02:00:00 2.26667 C 5.38 g/m*3 2.27 C 0 km/h
628 25-10-2021 03:00:00 1.875 C 5.28 g/m*3 1.88 C 0 km/h
629 25-10-2021 04:00:00 2.00833 C 5.34 g/m*3 2.01 C 0 km/h
630 25-10-2021 05:00:00 2.625 C 5.57 g/m*3 2.63 C 0.26667 km/h
631 25-10-2021 06:00:00 2.60833 C 5.56 g/m*3 2.61 C 0 km/h
632 25-10-2021 07:00:00 2.43333 C 5.49 g/m*3 2.43 C 0.66667 km/h
633 25-10-2021 08:00:00 2.175 C 5.4 g/m*3 2.17 C 0.53333 km/h
634 25-10-2021 09:00:00 2.175 C 5.43 g/m*3 2.17 C 0.8 km/h
635 25-10-2021 10:00:00 2.8 C 5.69 g/m*3 2.8 C 0.4 km/h
636 25-10-2021 11:00:00 3.91667 C 6.13 g/m*3 3.92 C 0.26667 km/h
637 25-10-2021 12:00:00 5.33333 C 6.74 g/m*3 5.33 C 1.06667 km/h
638 25-10-2021 13:00:00 6.59167 C 7.34 g/m*3 6.59 C 0.53333 km/h
639 25-10-2021 14:00:00 8.275 C 8.23 g/m*3 8.28 C 0.53333 km/h
640 25-10-2021 15:00:00 10.15833 C 9.3 g/m*3 10.16 C 0.13333 km/h
641 25-10-2021 16:00:00 10.95833 C 9.63 g/m*3 10.96 C 0.13333 km/h
642 25-10-2021 17:00:00 11.475 C 9.75 g/m*3 11.48 C 0.8 km/h
643 25-10-2021 18:00:00 10.19167 C 8.94 g/m*3 10.19 C 2.93333 km/h
644 25-10-2021 19:00:00 10.225 C 9.13 g/m*3 10.23 C 0.13333 km/h
645 25-10-2021 20:00:00 10.34167 C 9.22 g/m*3 10.34 C 0.26667 km/h
646 25-10-2021 21:00:00 10.60833 C 9.37 g/m*3 9.66 C 8.33333 km/h
647 25-10-2021 22:00:00 10.60833 C 9.28 g/m*3 10.31 C 5.49167 km/h
648 25-10-2021 23:00:00 10.29167 C 9.09 g/m*3 9.64 C 6.69167 km/h
649 26-10-2021 00:00:00 10.71667 C 9.37 g/m*3 10.36 C 5.76667 km/h
650 26-10-2021 01:00:00 10.75833 C 9.35 g/m*3 10.4 C 5.775 km/h
Sensor: Nr:Datum:Temp:Abs-Feuchte:Windchill:Wind:
Aussen-T/F 651 26-10-2021 02:00:00 11.05 C 9.32 g/m*3 11.05 C 10.09167 km/h
652 26-10-2021 03:00:00 11.15 C 9.25 g/m*3 11.15 C 9.4 km/h
653 26-10-2021 04:00:00 11.275 C 9.17 g/m*3 11.28 C 7.8 km/h
654 26-10-2021 05:00:00 11.16667 C 9.2 g/m*3 11.17 C 6.04167 km/h
655 26-10-2021 06:00:00 10.93333 C 9.14 g/m*3 10.93 C 2.13333 km/h
656 26-10-2021 07:00:00 10.91667 C 9.15 g/m*3 10.42 C 6.425 km/h
657 26-10-2021 08:00:00 10.85 C 9.09 g/m*3 10.85 C 4.55833 km/h
658 26-10-2021 09:00:00 11.08333 C 9.23 g/m*3 11.08 C 10.63333 km/h
659 26-10-2021 10:00:00 11.28333 C 9.27 g/m*3 11.28 C 9.00833 km/h
660 26-10-2021 11:00:00 12 C 9.49 g/m*3 12 C 12.49167 km/h
661 26-10-2021 12:00:00 12.70833 C 9.49 g/m*3 12.71 C 12.76667 km/h
662 26-10-2021 13:00:00 13.78333 C 9.59 g/m*3 13.78 C 14.63333 km/h
663 26-10-2021 14:00:00 14.64167 C 9.55 g/m*3 14.64 C 15.3 km/h
664 26-10-2021 15:00:00 15.11667 C 9.46 g/m*3 15.12 C 12.36667 km/h
665 26-10-2021 16:00:00 15.15833 C 9.38 g/m*3 15.16 C 13.96667 km/h
666 26-10-2021 17:00:00 14.31667 C 9.2 g/m*3 14.32 C 11.7 km/h
667 26-10-2021 18:00:00 12.71667 C 9.04 g/m*3 12.72 C 6.84167 km/h
668 26-10-2021 19:00:00 12.29167 C 9.07 g/m*3 12.29 C 5.075 km/h
669 26-10-2021 20:00:00 10.61667 C 8.65 g/m*3 10.17 C 6.03333 km/h
670 26-10-2021 21:00:00 10.625 C 8.75 g/m*3 9.52 C 9.15 km/h
671 26-10-2021 22:00:00 10.51667 C 8.67 g/m*3 9.4 C 9.13333 km/h
672 26-10-2021 23:00:00 10.41667 C 8.66 g/m*3 9.54 C 7.78333 km/h
673 27-10-2021 00:00:00 10.69167 C 8.89 g/m*3 9.24 C 11.41667 km/h
674 27-10-2021 01:00:00 11.64167 C 9.28 g/m*3 11.64 C 10.75833 km/h
675 27-10-2021 02:00:00 11.95 C 9.46 g/m*3 11.95 C 12.1 km/h
Sensor: Nr:Datum:Temp:Abs-Feuchte:Windchill:Wind:
Aussen-T/F 676 27-10-2021 03:00:00 12.19167 C 9.6 g/m*3 12.19 C 11.16667 km/h
677 27-10-2021 04:00:00 12.38333 C 9.7 g/m*3 12.38 C 12.1 km/h
678 27-10-2021 05:00:00 12.19167 C 9.72 g/m*3 12.19 C 8.34167 km/h
679 27-10-2021 06:00:00 11.93333 C 9.67 g/m*3 11.93 C 4.80833 km/h
680 27-10-2021 07:00:00 11.8 C 9.68 g/m*3 11.8 C 4.95 km/h
681 27-10-2021 08:00:00 11.75833 C 9.69 g/m*3 11.76 C 7.525 km/h
682 27-10-2021 09:00:00 11.65 C 9.66 g/m*3 11.65 C 4.96667 km/h
683 27-10-2021 10:00:00 12.41667 C 9.94 g/m*3 12.42 C 10.9 km/h
684 27-10-2021 11:00:00 13.05 C 10.12 g/m*3 13.05 C 10.1 km/h
685 27-10-2021 12:00:00 13.98333 C 10.44 g/m*3 13.98 C 5.36667 km/h
686 27-10-2021 13:00:00 14.8 C 10.65 g/m*3 14.8 C 5.49167 km/h
687 27-10-2021 14:00:00 15.25833 C 10.77 g/m*3 15.26 C 4.00833 km/h
688 27-10-2021 15:00:00 15.85 C 10.97 g/m*3 15.85 C 3.6 km/h
689 27-10-2021 16:00:00 15.8 C 11.03 g/m*3 15.8 C 3.06667 km/h
690 27-10-2021 17:00:00 15.225 C 10.76 g/m*3 15.23 C 4.53333 km/h
691 27-10-2021 18:00:00 12.65 C 9.78 g/m*3 12.65 C 5.34167 km/h
692 27-10-2021 19:00:00 10.95 C 9.14 g/m*3 10.95 C 3.74167 km/h
693 27-10-2021 20:00:00 9.75 C 8.64 g/m*3 9.75 C 1.2 km/h
694 27-10-2021 21:00:00 8.85833 C 8.26 g/m*3 8.86 C 0.66667 km/h
695 27-10-2021 22:00:00 8.525 C 8.12 g/m*3 8.53 C 0.53333 km/h
696 27-10-2021 23:00:00 8.20833 C 7.97 g/m*3 8.21 C 0.13333 km/h
697 28-10-2021 00:00:00 7.54167 C 7.65 g/m*3 7.54 C 0 km/h
698 28-10-2021 01:00:00 8.2 C 8.04 g/m*3 8.2 C 0 km/h
699 28-10-2021 02:00:00 8.78333 C 8.35 g/m*3 8.78 C 0 km/h
700 28-10-2021 03:00:00 8.60833 C 8.25 g/m*3 8.61 C 0.26667 km/h
Sensor: Nr:Datum:Temp:Abs-Feuchte:Windchill:Wind:
Aussen-T/F 701 28-10-2021 04:00:00 8.01667 C 7.95 g/m*3 8.02 C 0 km/h
702 28-10-2021 05:00:00 7.7 C 7.84 g/m*3 7.7 C 0 km/h
703 28-10-2021 06:00:00 7.41667 C 7.71 g/m*3 7.42 C 0 km/h
704 28-10-2021 07:00:00 7.6 C 7.81 g/m*3 7.6 C 0 km/h
705 28-10-2021 08:00:00 7.58333 C 7.81 g/m*3 7.58 C 0 km/h
706 28-10-2021 09:00:00 7.54167 C 7.79 g/m*3 7.54 C 0.66667 km/h
707 28-10-2021 10:00:00 7.95833 C 8 g/m*3 7.96 C 0.26667 km/h
708 28-10-2021 11:00:00 8.79167 C 8.44 g/m*3 8.79 C 1.33333 km/h
709 28-10-2021 12:00:00 9.48333 C 8.82 g/m*3 9.48 C 4.40833 km/h
710 28-10-2021 13:00:00 10.60833 C 9.28 g/m*3 10.61 C 4.66667 km/h
711 28-10-2021 14:00:00 11.25 C 9.14 g/m*3 11.25 C 10.35 km/h
712 28-10-2021 15:00:00 11.40833 C 8.97 g/m*3 11.41 C 13.03333 km/h
713 28-10-2021 16:00:00 10.85 C 8.76 g/m*3 9.1 C 13.83333 km/h
714 28-10-2021 17:00:00 10.725 C 8.65 g/m*3 10.73 C 4.95833 km/h
715 28-10-2021 18:00:00 9.125 C 8.05 g/m*3 9.13 C 4.81667 km/h
716 28-10-2021 19:00:00 7.7 C 7.45 g/m*3 7.7 C 0.53333 km/h
717 28-10-2021 20:00:00 6.79167 C 7.18 g/m*3 6.79 C 0.8 km/h
718 28-10-2021 21:00:00 6.825 C 7.28 g/m*3 6.83 C 0.93333 km/h
719 28-10-2021 22:00:00 7.11667 C 7.47 g/m*3 7.12 C 0 km/h
720 28-10-2021 23:00:00 7.60833 C 7.74 g/m*3 7.61 C 0 km/h

Maximal/Minimal-Werte vom 29.09.2021 - 28.10.2021

Sensor Min Max Avg
Temp
(Aussen-T/F)
1.5 °C
24-10-2021  09:05:00
23.2 °C
03-10-2021  14:40:00
10.44 °C
Abs-Feuchte
(Aussen-T/F)
5.19 g/m*3
24-10-2021  09:00:00
13.27 g/m*3
19-10-2021  16:00:00
8.8 g/m*3
Windchill
(Aussen-T/F)
1.59 C
24-10-2021  09:00:00
22.87 C
03-10-2021  14:00:00
10.32 C

Die Daten stammen von einer Davis Vantage Pro 2 Wetter-Station und werden unter Linux mit der Software wview2wettercgi und aufbereitet. Alle Angaben erfolgen ohne Gewähr für ihre Vollständigkeit oder Richtigkeit.
Kontakt: Rainer Krienke krienke@uni-koblenz.de . Meine Webseiten an der Uni Koblenz oder privat.
Version: $Revision: 0.78 $